Time,TemperatureF,DewpointF,PressureIn,WindDirection,WindDirectionDegrees,WindSpeedMPH,WindSpeedGustMPH,Humidity,HourlyPrecipIn,Conditions,Clouds,dailyrainin,SoftwareType,DateUTC
2013-08-29 00:00:00,72.8,70.0,30.03,SSE,148,0.0,0.0,91,0.00,,---,0.00,VWS V14.01,2013-08-29 04:00:00,
2013-08-29 00:01:00,72.8,70.0,30.03,SSE,148,0.0,0.0,91,0.00,,---,0.00,VWS V14.01,2013-08-29 04:01:00,
2013-08-29 00:06:00,72.7,70.2,30.03,SSE,148,0.0,0.0,92,0.00,,---,0.00,VWS V14.01,2013-08-29 04:06:00,
2013-08-29 00:10:00,72.6,70.2,30.03,SSE,148,0.0,0.0,92,0.00,,---,0.00,VWS V14.01,2013-08-29 04:10:00,
2013-08-29 00:11:00,72.6,70.2,30.03,SSE,148,0.0,0.0,92,0.00,,---,0.00,VWS V14.01,2013-08-29 04:11:00,
2013-08-29 00:16:00,72.5,70.1,30.03,SSE,148,0.0,0.0,92,0.00,,---,0.00,VWS V14.01,2013-08-29 04:16:00,
2013-08-29 00:20:00,72.5,70.1,30.03,SSE,148,0.0,0.0,92,0.00,,---,0.00,VWS V14.01,2013-08-29 04:20:00,
2013-08-29 00:21:00,72.5,70.1,30.03,SSE,148,0.0,0.0,92,0.00,,---,0.00,VWS V14.01,2013-08-29 04:21:00,
2013-08-29 00:26:00,72.4,69.9,30.02,SSE,148,0.0,0.0,92,0.00,,---,0.00,VWS V14.01,2013-08-29 04:26:00,
2013-08-29 00:30:00,72.4,69.9,30.03,SSE,148,0.0,0.0,92,0.00,,---,0.00,VWS V14.01,2013-08-29 04:30:00,
2013-08-29 00:31:00,72.4,69.9,30.03,SSE,148,0.0,0.0,92,0.00,,---,0.00,VWS V14.01,2013-08-29 04:31:00,
2013-08-29 00:36:00,72.5,70.4,30.03,SSE,148,0.0,0.0,93,0.00,,---,0.00,VWS V14.01,2013-08-29 04:36:00,
2013-08-29 00:40:00,72.4,70.3,30.02,SSE,148,0.0,0.0,93,0.00,,---,0.00,VWS V14.01,2013-08-29 04:40:00,
2013-08-29 00:41:00,72.4,70.3,30.02,SSE,148,0.0,0.0,93,0.00,,---,0.00,VWS V14.01,2013-08-29 04:41:00,
2013-08-29 00:46:00,72.4,70.3,30.02,SSE,148,0.0,0.0,93,0.00,,---,0.00,VWS V14.01,2013-08-29 04:46:00,
2013-08-29 00:50:00,72.3,70.2,30.02,SSE,148,0.0,0.0,93,0.00,,---,0.00,VWS V14.01,2013-08-29 04:50:00,
2013-08-29 00:51:00,72.3,70.2,30.02,SSE,148,0.0,0.0,93,0.00,,---,0.00,VWS V14.01,2013-08-29 04:51:00,
2013-08-29 00:56:00,72.2,70.1,30.02,SSE,148,0.0,0.0,93,0.00,,---,0.00,VWS V14.01,2013-08-29 04:56:00,
2013-08-29 01:00:00,72.1,70.0,30.02,SSE,148,0.0,0.0,93,0.00,,---,0.00,VWS V14.01,2013-08-29 05:00:00,
2013-08-29 01:01:00,72.1,70.0,30.02,SSE,148,0.0,0.0,93,0.00,,---,0.00,VWS V14.01,2013-08-29 05:01:00,
2013-08-29 01:06:00,72.0,69.9,30.02,SSE,148,0.0,0.0,93,0.00,,---,0.00,VWS V14.01,2013-08-29 05:06:00,
2013-08-29 01:10:00,72.0,69.9,30.02,SSE,148,0.0,0.0,93,0.00,,---,0.00,VWS V14.01,2013-08-29 05:10:00,
2013-08-29 01:11:00,72.0,69.9,30.02,SSE,148,0.0,0.0,93,0.00,,---,0.00,VWS V14.01,2013-08-29 05:11:00,
2013-08-29 01:16:00,72.1,70.0,30.02,SSE,148,0.0,0.0,93,0.00,,---,0.00,VWS V14.01,2013-08-29 05:16:00,
2013-08-29 01:20:00,72.0,69.9,30.02,SSE,148,0.0,0.0,93,0.00,,---,0.00,VWS V14.01,2013-08-29 05:20:00,
2013-08-29 01:21:00,72.0,69.9,30.02,SSE,148,0.0,0.0,93,0.00,,---,0.00,VWS V14.01,2013-08-29 05:21:00,
2013-08-29 01:26:00,72.1,70.3,30.02,SSE,148,0.0,0.0,94,0.00,,---,0.00,VWS V14.01,2013-08-29 05:26:00,
2013-08-29 01:30:00,72.1,70.3,30.02,SSE,148,0.0,0.0,94,0.00,,---,0.00,VWS V14.01,2013-08-29 05:30:00,
2013-08-29 01:31:00,72.1,70.3,30.02,SSE,148,0.0,0.0,94,0.00,,---,0.00,VWS V14.01,2013-08-29 05:31:00,
2013-08-29 01:36:00,72.1,70.0,30.01,SSE,148,0.0,0.0,93,0.00,,---,0.00,VWS V14.01,2013-08-29 05:36:00,
2013-08-29 01:40:00,72.0,69.9,30.01,SSE,148,0.0,0.0,93,0.00,,---,0.00,VWS V14.01,2013-08-29 05:40:00,
2013-08-29 01:41:00,72.0,69.9,30.02,SSE,148,0.0,0.0,93,0.00,,---,0.00,VWS V14.01,2013-08-29 05:41:00,
2013-08-29 01:46:00,71.9,69.8,30.02,SSE,148,0.0,0.0,93,0.00,,---,0.00,VWS V14.01,2013-08-29 05:46:00,
2013-08-29 01:50:00,72.0,69.9,30.01,SSE,148,0.0,0.0,93,0.00,,---,0.00,VWS V14.01,2013-08-29 05:50:00,
2013-08-29 01:51:00,72.0,69.9,30.01,SSE,148,0.0,0.0,93,0.00,,---,0.00,VWS V14.01,2013-08-29 05:51:00,
2013-08-29 01:56:00,72.1,70.0,30.01,SSE,148,0.0,0.0,93,0.00,,---,0.00,VWS V14.01,2013-08-29 05:56:00,
2013-08-29 02:00:00,72.1,70.0,30.01,SSE,148,0.0,0.0,93,0.00,,---,0.00,VWS V14.01,2013-08-29 06:00:00,
2013-08-29 02:05:00,72.0,69.9,30.01,SSE,148,0.0,0.0,93,0.00,,---,0.00,VWS V14.01,2013-08-29 06:05:00,
2013-08-29 02:10:00,71.9,69.8,30.01,SSE,148,0.0,0.0,93,0.00,,---,0.00,VWS V14.01,2013-08-29 06:10:00,
2013-08-29 02:15:00,71.8,69.7,30.02,SSE,148,0.0,0.0,93,0.00,,---,0.00,VWS V14.01,2013-08-29 06:15:00,
2013-08-29 02:20:00,71.7,69.6,30.01,SSE,148,0.0,0.0,93,0.00,,---,0.00,VWS V14.01,2013-08-29 06:20:00,
2013-08-29 02:25:00,71.6,69.5,30.01,SSE,148,0.0,0.0,93,0.00,,---,0.00,VWS V14.01,2013-08-29 06:25:00,
2013-08-29 02:30:00,71.5,69.4,30.01,SSE,148,0.0,0.0,93,0.00,,---,0.00,VWS V14.01,2013-08-29 06:30:00,
2013-08-29 02:35:00,71.5,69.7,30.01,SSE,148,0.0,0.0,94,0.00,,---,0.00,VWS V14.01,2013-08-29 06:35:00,
2013-08-29 02:40:00,71.4,69.6,30.01,SSE,148,0.0,0.0,94,0.00,,---,0.00,VWS V14.01,2013-08-29 06:40:00,
2013-08-29 02:45:00,71.4,69.6,30.01,SSE,148,0.0,0.0,94,0.00,,---,0.00,VWS V14.01,2013-08-29 06:45:00,
2013-08-29 02:50:00,71.3,69.5,30.01,SSE,148,0.0,0.0,94,0.00,,---,0.00,VWS V14.01,2013-08-29 06:50:00,
2013-08-29 02:55:00,71.3,69.5,30.01,SSE,148,0.0,0.0,94,0.00,,---,0.00,VWS V14.01,2013-08-29 06:55:00,
2013-08-29 03:00:00,71.2,69.4,30.01,SSE,148,0.0,0.0,94,0.00,,---,0.00,VWS V14.01,2013-08-29 07:00:00,
2013-08-29 03:05:00,71.2,69.4,30.01,SSE,148,0.0,0.0,94,0.00,,---,0.00,VWS V14.01,2013-08-29 07:05:00,
2013-08-29 03:10:00,71.3,69.5,30.00,SSE,148,0.0,0.0,94,0.00,,---,0.00,VWS V14.01,2013-08-29 07:10:00,
2013-08-29 03:15:00,71.2,69.4,30.00,SSE,148,0.0,0.0,94,0.00,,---,0.00,VWS V14.01,2013-08-29 07:15:00,
2013-08-29 03:20:00,71.3,69.5,30.00,SSE,148,0.0,0.0,94,0.00,,---,0.00,VWS V14.01,2013-08-29 07:20:00,
2013-08-29 03:25:00,71.2,69.4,30.00,SSE,148,0.0,0.0,94,0.00,,---,0.00,VWS V14.01,2013-08-29 07:25:00,
2013-08-29 03:30:00,71.1,69.3,30.00,SSE,148,0.0,0.0,94,0.00,,---,0.00,VWS V14.01,2013-08-29 07:30:00,
2013-08-29 03:35:00,71.0,69.2,30.00,SSE,148,0.0,0.0,94,0.00,,---,0.00,VWS V14.01,2013-08-29 07:35:00,
2013-08-29 03:40:00,71.1,69.6,30.00,SSE,148,0.0,0.0,95,0.00,,---,0.00,VWS V14.01,2013-08-29 07:40:00,
2013-08-29 03:45:00,71.0,69.2,30.00,SSE,148,0.0,0.0,94,0.00,,---,0.00,VWS V14.01,2013-08-29 07:45:00,
2013-08-29 03:50:00,71.0,69.5,30.00,SSE,148,0.0,0.0,95,0.00,,---,0.00,VWS V14.01,2013-08-29 07:50:00,
2013-08-29 03:55:00,71.0,69.5,30.00,SSE,148,0.0,0.0,95,0.00,,---,0.00,VWS V14.01,2013-08-29 07:55:00,
2013-08-29 04:00:00,70.8,69.3,30.00,SSE,148,0.0,0.0,95,0.00,,---,0.00,VWS V14.01,2013-08-29 08:00:00,
2013-08-29 04:05:00,70.8,69.0,30.00,SSE,148,0.0,0.0,94,0.00,,---,0.00,VWS V14.01,2013-08-29 08:05:00,
2013-08-29 04:10:00,70.7,68.9,30.00,SSE,148,0.0,0.0,94,0.00,,---,0.00,VWS V14.01,2013-08-29 08:10:00,
2013-08-29 04:15:00,70.6,69.1,30.00,SSE,148,0.0,0.0,95,0.00,,---,0.00,VWS V14.01,2013-08-29 08:15:00,
2013-08-29 04:20:00,70.6,69.1,30.00,SSE,148,0.0,0.0,95,0.00,,---,0.00,VWS V14.01,2013-08-29 08:20:00,
2013-08-29 04:25:00,70.6,69.1,30.00,SSE,148,0.0,0.0,95,0.00,,---,0.00,VWS V14.01,2013-08-29 08:25:00,
2013-08-29 04:30:00,70.6,69.1,30.00,SSE,148,0.0,0.0,95,0.00,,---,0.00,VWS V14.01,2013-08-29 08:30:00,
2013-08-29 04:35:00,70.6,69.1,29.99,SSE,148,0.0,0.0,95,0.00,,---,0.00,VWS V14.01,2013-08-29 08:35:00,
2013-08-29 04:40:00,70.6,69.1,29.99,SSE,148,0.0,0.0,95,0.00,,---,0.00,VWS V14.01,2013-08-29 08:40:00,
2013-08-29 04:45:00,70.6,69.1,29.99,SSE,148,0.0,0.0,95,0.00,,---,0.00,VWS V14.01,2013-08-29 08:45:00,
2013-08-29 04:50:00,70.8,69.3,29.99,SSE,148,0.0,0.0,95,0.00,,---,0.00,VWS V14.01,2013-08-29 08:50:00,
2013-08-29 04:55:00,70.9,69.4,29.99,SSE,148,0.0,0.0,95,0.00,,---,0.00,VWS V14.01,2013-08-29 08:55:00,
2013-08-29 05:00:00,70.9,69.4,29.99,SSE,148,0.0,0.0,95,0.00,,---,0.00,VWS V14.01,2013-08-29 09:00:00,
2013-08-29 05:05:00,70.9,69.4,29.99,SSE,148,0.0,0.0,95,0.00,,---,0.00,VWS V14.01,2013-08-29 09:05:00,
2013-08-29 05:10:00,71.0,69.5,29.99,SSE,148,0.0,0.0,95,0.00,,---,0.00,VWS V14.01,2013-08-29 09:10:00,
2013-08-29 05:15:00,71.0,69.5,29.99,SSE,148,0.0,0.0,95,0.00,,---,0.00,VWS V14.01,2013-08-29 09:15:00,
2013-08-29 05:20:00,71.2,69.7,29.99,SSE,148,0.0,0.0,95,0.00,,---,0.00,VWS V14.01,2013-08-29 09:20:00,
2013-08-29 05:25:00,71.6,70.1,29.99,SSE,148,0.0,0.0,95,0.00,,---,0.00,VWS V14.01,2013-08-29 09:25:00,
2013-08-29 05:30:00,71.9,70.4,29.99,SSE,148,0.0,0.0,95,0.00,,---,0.00,VWS V14.01,2013-08-29 09:30:00,
2013-08-29 05:35:00,72.0,70.5,29.99,SSE,148,0.0,0.0,95,0.00,,---,0.00,VWS V14.01,2013-08-29 09:35:00,
2013-08-29 05:40:00,72.0,70.5,29.99,SSE,148,0.0,0.0,95,0.00,,---,0.00,VWS V14.01,2013-08-29 09:40:00,
2013-08-29 05:45:00,72.1,70.6,29.99,SSE,148,0.0,0.0,95,0.00,,---,0.00,VWS V14.01,2013-08-29 09:45:00,
2013-08-29 05:50:00,72.1,70.6,29.99,SSE,148,0.0,0.0,95,0.00,,---,0.00,VWS V14.01,2013-08-29 09:50:00,
2013-08-29 05:55:00,72.2,70.7,29.99,SSE,148,0.0,0.0,95,0.00,,---,0.00,VWS V14.01,2013-08-29 09:55:00,
2013-08-29 06:00:00,72.2,70.7,29.99,SSE,148,0.0,0.0,95,0.00,,---,0.00,VWS V14.01,2013-08-29 10:00:00,
2013-08-29 06:05:00,72.2,70.7,29.99,SSE,148,0.0,0.0,95,0.00,,---,0.00,VWS V14.01,2013-08-29 10:05:00,
2013-08-29 06:10:00,72.2,70.7,29.99,SSE,148,0.0,0.0,95,0.00,,---,0.00,VWS V14.01,2013-08-29 10:10:00,
2013-08-29 06:15:00,72.3,70.8,29.99,SSE,148,0.0,0.0,95,0.00,,---,0.00,VWS V14.01,2013-08-29 10:15:00,
2013-08-29 06:20:00,72.3,70.8,29.99,SSE,148,0.0,0.0,95,0.00,,---,0.00,VWS V14.01,2013-08-29 10:20:00,
2013-08-29 06:25:00,72.3,70.8,29.99,SSE,148,0.0,0.0,95,0.00,,---,0.00,VWS V14.01,2013-08-29 10:25:00,
2013-08-29 06:30:00,72.3,70.8,29.99,SSE,148,0.0,0.0,95,0.00,,---,0.00,VWS V14.01,2013-08-29 10:30:00,
2013-08-29 06:35:00,72.2,70.7,29.99,SSE,148,0.0,0.0,95,0.00,,---,0.00,VWS V14.01,2013-08-29 10:35:00,
2013-08-29 06:40:00,72.2,70.7,29.99,SSE,148,0.0,0.0,95,0.00,,---,0.00,VWS V14.01,2013-08-29 10:40:00,
2013-08-29 06:45:00,72.4,70.9,29.99,SSE,148,0.0,0.0,95,0.00,,---,0.00,VWS V14.01,2013-08-29 10:45:00,
2013-08-29 06:50:00,72.4,70.9,29.99,SSE,148,0.0,0.0,95,0.00,,---,0.00,VWS V14.01,2013-08-29 10:50:00,
2013-08-29 06:55:00,72.4,70.9,29.99,SSE,148,0.0,0.0,95,0.00,,---,0.00,VWS V14.01,2013-08-29 10:55:00,
2013-08-29 07:00:00,72.3,70.8,29.99,SSE,148,0.0,0.0,95,0.00,,---,0.00,VWS V14.01,2013-08-29 11:00:00,
2013-08-29 07:05:00,72.2,70.7,29.99,SSE,148,0.0,0.0,95,0.00,,---,0.00,VWS V14.01,2013-08-29 11:05:00,
2013-08-29 07:10:00,72.1,70.6,29.99,SSE,148,0.0,0.0,95,0.00,,---,0.00,VWS V14.01,2013-08-29 11:10:00,
2013-08-29 07:15:00,72.1,70.6,29.99,SSE,148,0.0,0.0,95,0.00,,---,0.00,VWS V14.01,2013-08-29 11:15:00,
2013-08-29 07:20:00,72.1,70.6,29.99,SSE,148,0.0,0.0,95,0.00,,---,0.00,VWS V14.01,2013-08-29 11:20:00,
2013-08-29 07:25:00,72.2,70.7,29.99,SSE,148,0.0,0.0,95,0.00,,---,0.00,VWS V14.01,2013-08-29 11:25:00,
2013-08-29 07:30:00,72.2,70.7,29.99,SSE,148,0.0,0.0,95,0.00,,---,0.00,VWS V14.01,2013-08-29 11:30:00,
2013-08-29 07:35:00,72.2,70.7,30.00,SSE,148,0.0,0.0,95,0.00,,---,0.00,VWS V14.01,2013-08-29 11:35:00,
2013-08-29 07:40:00,72.3,70.8,30.00,SSE,148,0.0,0.0,95,0.00,,---,0.00,VWS V14.01,2013-08-29 11:40:00,
2013-08-29 07:45:00,72.9,71.7,30.00,SSE,148,0.0,0.0,96,0.00,,---,0.00,VWS V14.01,2013-08-29 11:45:00,
2013-08-29 07:50:00,73.2,72.0,30.00,SSE,148,0.0,0.0,96,0.00,,---,0.00,VWS V14.01,2013-08-29 11:50:00,
2013-08-29 07:55:00,73.7,72.2,30.00,SSE,148,0.0,0.0,95,0.00,,---,0.00,VWS V14.01,2013-08-29 11:55:00,
2013-08-29 08:00:00,74.4,73.2,30.00,SSE,148,0.0,0.0,96,0.00,,---,0.00,VWS V14.01,2013-08-29 12:00:00,
2013-08-29 08:05:00,75.3,73.8,30.00,SSE,148,0.0,0.0,95,0.00,,---,0.00,VWS V14.01,2013-08-29 12:05:00,
2013-08-29 08:10:00,76.5,75.0,30.00,SSE,148,0.0,0.0,95,0.00,,---,0.00,VWS V14.01,2013-08-29 12:10:00,
2013-08-29 08:15:00,77.1,74.9,30.00,SSE,148,0.0,0.0,93,0.00,,---,0.00,VWS V14.01,2013-08-29 12:15:00,
2013-08-29 08:20:00,77.5,74.3,30.01,SSE,148,2.0,2.0,90,0.00,,---,0.00,VWS V14.01,2013-08-29 12:20:00,
2013-08-29 08:25:00,78.0,74.2,30.01,SSE,148,5.0,5.0,88,0.00,,---,0.00,VWS V14.01,2013-08-29 12:25:00,
2013-08-29 08:30:00,78.3,74.1,30.01,SSE,148,2.0,5.0,87,0.00,,---,0.00,VWS V14.01,2013-08-29 12:30:00,
2013-08-29 08:35:00,79.2,75.0,30.01,SSE,148,1.0,2.0,87,0.00,,---,0.00,VWS V14.01,2013-08-29 12:35:00,
2013-08-29 08:40:00,79.6,74.7,30.00,SSE,148,2.0,4.0,85,0.00,,---,0.00,VWS V14.01,2013-08-29 12:40:00,
2013-08-29 08:45:00,79.6,73.6,30.01,SSE,148,4.0,5.0,82,0.00,,---,0.00,VWS V14.01,2013-08-29 12:45:00,
2013-08-29 08:50:00,79.4,73.8,30.01,SSE,148,0.0,5.0,83,0.00,,---,0.00,VWS V14.01,2013-08-29 12:50:00,
2013-08-29 08:55:00,79.4,74.2,30.01,SSE,148,0.0,0.0,84,0.00,,---,0.00,VWS V14.01,2013-08-29 12:55:00,
2013-08-29 09:00:00,79.8,74.5,30.01,SSE,148,0.0,2.0,84,0.00,,---,0.00,VWS V14.01,2013-08-29 13:00:00,
2013-08-29 09:05:00,80.7,74.3,30.01,SSE,148,4.0,4.0,81,0.00,,---,0.00,VWS V14.01,2013-08-29 13:05:00,
2013-08-29 09:10:00,81.7,73.8,30.01,SSE,148,1.0,4.0,77,0.00,,---,0.00,VWS V14.01,2013-08-29 13:10:00,
2013-08-29 09:15:00,82.1,74.9,30.01,SSE,148,0.0,2.0,79,0.00,,---,0.00,VWS V14.01,2013-08-29 13:15:00,
2013-08-29 09:20:00,82.7,74.4,30.01,SSE,148,0.0,2.0,76,0.00,,---,0.00,VWS V14.01,2013-08-29 13:20:00,
2013-08-29 09:25:00,82.9,74.9,30.01,SSE,148,4.0,4.0,77,0.00,,---,0.00,VWS V14.01,2013-08-29 13:25:00,
2013-08-29 09:30:00,83.0,75.4,30.01,SSE,148,0.0,4.0,78,0.00,,---,0.00,VWS V14.01,2013-08-29 13:30:00,
2013-08-29 09:35:00,83.3,74.9,30.01,SSE,148,2.0,6.0,76,0.00,,---,0.00,VWS V14.01,2013-08-29 13:35:00,
2013-08-29 09:40:00,82.6,73.9,30.01,WSW,255,3.0,6.0,75,0.00,,---,0.00,VWS V14.01,2013-08-29 13:40:00,
2013-08-29 09:45:00,82.4,75.2,30.01,WSW,255,1.0,5.0,79,0.00,,---,0.00,VWS V14.01,2013-08-29 13:45:00,
2013-08-29 09:50:00,82.9,74.9,30.01,WSW,255,1.0,5.0,77,0.00,,---,0.00,VWS V14.01,2013-08-29 13:50:00,
2013-08-29 09:55:00,82.4,74.1,30.01,West,259,1.0,6.0,76,0.00,,---,0.00,VWS V14.01,2013-08-29 13:55:00,
2013-08-29 10:00:00,82.5,74.6,30.01,West,259,2.0,6.0,77,0.00,,---,0.00,VWS V14.01,2013-08-29 14:00:00,
2013-08-29 10:05:00,82.2,73.9,30.01,West,276,2.0,6.0,76,0.00,,---,0.00,VWS V14.01,2013-08-29 14:05:00,
2013-08-29 10:10:00,82.1,74.2,30.01,West,276,0.0,6.0,77,0.00,,---,0.00,VWS V14.01,2013-08-29 14:10:00,
2013-08-29 10:15:00,82.8,75.2,30.01,West,276,0.0,3.0,78,0.00,,---,0.00,VWS V14.01,2013-08-29 14:15:00,
2013-08-29 10:20:00,84.8,76.0,30.01,West,276,2.0,3.0,75,0.00,,---,0.00,VWS V14.01,2013-08-29 14:20:00,
2013-08-29 10:25:00,85.2,74.7,30.01,WNW,286,4.0,7.0,71,0.00,,---,0.00,VWS V14.01,2013-08-29 14:25:00,
2013-08-29 10:30:00,84.8,74.8,30.01,West,278,2.0,7.0,72,0.00,,---,0.00,VWS V14.01,2013-08-29 14:30:00,
2013-08-29 10:35:00,85.5,75.4,30.01,West,278,3.0,4.0,72,0.00,,---,0.00,VWS V14.01,2013-08-29 14:35:00,
2013-08-29 10:40:00,85.1,72.5,30.01,West,278,3.0,5.0,66,0.00,,---,0.00,VWS V14.01,2013-08-29 14:40:00,
2013-08-29 10:45:00,84.2,72.9,30.01,West,281,3.0,6.0,69,0.00,,---,0.00,VWS V14.01,2013-08-29 14:45:00,
2013-08-29 10:50:00,84.7,73.8,30.01,WNW,292,1.0,6.0,70,0.00,,---,0.00,VWS V14.01,2013-08-29 14:50:00,
2013-08-29 10:55:00,84.9,73.6,30.01,WNW,292,0.0,4.0,69,0.00,,---,0.00,VWS V14.01,2013-08-29 14:55:00,
2013-08-29 11:00:00,85.5,74.2,30.01,WNW,292,4.0,4.0,69,0.00,,---,0.00,VWS V14.01,2013-08-29 15:00:00,
2013-08-29 11:05:00,86.6,75.7,30.02,NNE,24,3.0,6.0,70,0.00,,---,0.00,VWS V14.01,2013-08-29 15:05:00,
2013-08-29 11:10:00,85.9,73.7,30.01,North,5,4.0,6.0,67,0.00,,---,0.00,VWS V14.01,2013-08-29 15:10:00,
2013-08-29 11:15:00,85.5,73.7,30.01,WNW,301,4.0,9.0,68,0.00,,---,0.00,VWS V14.01,2013-08-29 15:15:00,
2013-08-29 11:20:00,84.6,73.3,30.01,WNW,301,0.0,9.0,69,0.00,,---,0.00,VWS V14.01,2013-08-29 15:20:00,
2013-08-29 11:25:00,85.5,75.0,30.01,NW,319,2.0,5.0,71,0.00,,---,0.00,VWS V14.01,2013-08-29 15:25:00,
2013-08-29 11:30:00,86.6,75.2,30.01,NW,325,4.0,6.0,69,0.00,,---,0.00,VWS V14.01,2013-08-29 15:30:00,
2013-08-29 11:35:00,87.0,74.3,30.01,NW,325,0.0,5.0,66,0.00,,---,0.00,VWS V14.01,2013-08-29 15:35:00,
2013-08-29 11:40:00,87.7,75.8,30.01,NW,325,4.0,5.0,68,0.00,,---,0.00,VWS V14.01,2013-08-29 15:40:00,
2013-08-29 11:45:00,87.5,72.9,30.01,NW,325,3.0,5.0,62,0.00,,---,0.00,VWS V14.01,2013-08-29 15:45:00,
2013-08-29 11:50:00,86.5,73.8,30.01,NW,323,3.0,5.0,66,0.00,,---,0.00,VWS V14.01,2013-08-29 15:50:00,
2013-08-29 11:55:00,86.0,72.9,30.01,NW,323,0.0,2.0,65,0.00,,---,0.00,VWS V14.01,2013-08-29 15:55:00,
2013-08-29 12:00:00,85.5,73.7,30.01,NW,323,3.0,6.0,68,0.00,,---,0.00,VWS V14.01,2013-08-29 16:00:00,
2013-08-29 12:05:00,85.1,73.4,30.00,NW,323,0.0,4.0,68,0.00,,---,0.00,VWS V14.01,2013-08-29 16:05:00,
2013-08-29 12:10:00,86.6,73.9,30.01,NW,324,6.0,7.0,66,0.00,,---,0.00,VWS V14.01,2013-08-29 16:10:00,
2013-08-29 12:15:00,88.1,73.4,30.00,NNW,340,1.0,7.0,62,0.00,,---,0.00,VWS V14.01,2013-08-29 16:15:00,
2013-08-29 12:20:00,88.8,73.6,30.01,North,355,6.0,7.0,61,0.00,,---,0.00,VWS V14.01,2013-08-29 16:20:00,
2013-08-29 12:25:00,89.2,75.0,30.00,North,355,5.0,9.0,63,0.00,,---,0.00,VWS V14.01,2013-08-29 16:25:00,
2013-08-29 12:30:00,89.6,73.4,30.00,NNW,344,3.0,9.0,59,0.00,,---,0.00,VWS V14.01,2013-08-29 16:30:00,
2013-08-29 12:35:00,89.3,75.5,30.00,SSE,152,4.0,7.0,64,0.00,,---,0.00,VWS V14.01,2013-08-29 16:35:00,
2013-08-29 12:40:00,88.7,73.5,30.00,ESE,110,5.0,7.0,61,0.00,,---,0.00,VWS V14.01,2013-08-29 16:40:00,
2013-08-29 12:45:00,89.2,74.5,30.00,ESE,116,2.0,6.0,62,0.00,,---,0.00,VWS V14.01,2013-08-29 16:45:00,
2013-08-29 12:50:00,89.0,72.8,30.00,ENE,71,2.0,6.0,59,0.00,,---,0.00,VWS V14.01,2013-08-29 16:50:00,
2013-08-29 12:55:00,88.1,73.0,30.00,NE,52,2.0,10.0,61,0.00,,---,0.00,VWS V14.01,2013-08-29 16:55:00,
2013-08-29 13:00:00,88.1,71.0,30.00,NE,52,1.0,10.0,57,0.00,,---,0.00,VWS V14.01,2013-08-29 17:00:00,
2013-08-29 13:05:00,89.7,70.9,30.00,NE,53,0.0,3.0,54,0.00,,---,0.00,VWS V14.01,2013-08-29 17:05:00,
2013-08-29 13:10:00,90.0,72.2,30.00,NE,35,3.0,10.0,56,0.00,,---,0.00,VWS V14.01,2013-08-29 17:10:00,
2013-08-29 13:15:00,89.8,72.6,29.99,NW,312,4.0,10.0,57,0.00,,---,0.00,VWS V14.01,2013-08-29 17:15:00,
2013-08-29 13:20:00,89.8,73.1,29.99,NE,34,5.0,10.0,58,0.00,,---,0.00,VWS V14.01,2013-08-29 17:20:00,
2013-08-29 13:25:00,88.6,71.9,29.99,North,5,4.0,8.0,58,0.00,,---,0.00,VWS V14.01,2013-08-29 17:25:00,
2013-08-29 13:30:00,89.3,74.1,29.99,North,350,0.0,9.0,61,0.00,,---,0.00,VWS V14.01,2013-08-29 17:30:00,
2013-08-29 13:35:00,90.0,74.3,29.98,North,5,6.0,8.0,60,0.00,,---,0.00,VWS V14.01,2013-08-29 17:35:00,
2013-08-29 13:40:00,90.4,75.1,29.99,North,360,5.0,11.0,61,0.00,,---,0.00,VWS V14.01,2013-08-29 17:40:00,
2013-08-29 13:45:00,90.8,75.5,29.99,NNE,14,4.0,11.0,61,0.00,,---,0.00,VWS V14.01,2013-08-29 17:45:00,
2013-08-29 13:50:00,90.9,73.6,29.98,NNE,30,6.0,11.0,57,0.00,,---,0.00,VWS V14.01,2013-08-29 17:50:00,
2013-08-29 13:55:00,90.7,73.4,29.98,North,360,5.0,7.0,57,0.00,,---,0.00,VWS V14.01,2013-08-29 17:55:00,
2013-08-29 14:00:00,90.8,72.4,29.98,NNW,331,4.0,10.0,55,0.00,,---,0.00,VWS V14.01,2013-08-29 18:00:00,
2013-08-29 14:05:00,90.0,72.2,29.98,NNW,342,5.0,9.0,56,0.00,,---,0.00,VWS V14.01,2013-08-29 18:05:00,
2013-08-29 14:10:00,89.2,73.0,29.98,NNW,334,4.0,9.0,59,0.00,,---,0.00,VWS V14.01,2013-08-29 18:10:00,
2013-08-29 14:15:00,88.4,72.8,29.98,NNW,334,2.0,6.0,60,0.00,,---,0.00,VWS V14.01,2013-08-29 18:15:00,
2013-08-29 14:20:00,87.7,71.6,29.98,NNW,334,2.0,6.0,59,0.00,,---,0.00,VWS V14.01,2013-08-29 18:20:00,
2013-08-29 14:25:00,87.3,70.7,29.97,NNW,334,1.0,5.0,58,0.00,,---,0.00,VWS V14.01,2013-08-29 18:25:00,
2013-08-29 14:30:00,89.0,72.8,29.97,NNW,334,3.0,5.0,59,0.00,,---,0.00,VWS V14.01,2013-08-29 18:30:00,
2013-08-29 14:35:00,89.4,71.7,29.97,NNW,334,0.0,3.0,56,0.00,,---,0.00,VWS V14.01,2013-08-29 18:35:00,
2013-08-29 14:40:00,89.7,73.5,29.97,NNW,334,2.0,3.0,59,0.00,,---,0.00,VWS V14.01,2013-08-29 18:40:00,
2013-08-29 14:45:00,90.6,74.3,29.97,NNW,334,3.0,4.0,59,0.00,,---,0.00,VWS V14.01,2013-08-29 18:45:00,
2013-08-29 14:50:00,91.0,72.6,29.96,NNW,334,0.0,4.0,55,0.00,,---,0.00,VWS V14.01,2013-08-29 18:50:00,
2013-08-29 14:55:00,91.9,74.5,29.96,NE,40,4.0,11.0,57,0.00,,---,0.00,VWS V14.01,2013-08-29 18:55:00,
2013-08-29 15:00:00,90.9,74.1,29.96,ENE,61,6.0,11.0,58,0.00,,---,0.00,VWS V14.01,2013-08-29 19:00:00,
2013-08-29 15:05:00,90.3,71.4,29.96,North,5,4.0,7.0,54,0.00,,---,0.00,VWS V14.01,2013-08-29 19:05:00,
2013-08-29 15:10:00,89.6,70.8,29.95,NNW,327,4.0,7.0,54,0.00,,---,0.00,VWS V14.01,2013-08-29 19:10:00,
2013-08-29 15:15:00,89.1,72.9,29.95,NW,313,4.0,6.0,59,0.00,,---,0.00,VWS V14.01,2013-08-29 19:15:00,
2013-08-29 15:20:00,90.7,70.7,29.95,NW,320,5.0,9.0,52,0.00,,---,0.00,VWS V14.01,2013-08-29 19:20:00,
2013-08-29 15:25:00,91.7,73.8,29.95,NNE,32,1.0,6.0,56,0.00,,---,0.00,VWS V14.01,2013-08-29 19:25:00,
2013-08-29 15:30:00,92.1,70.2,29.94,NNE,24,0.0,8.0,49,0.00,,---,0.00,VWS V14.01,2013-08-29 19:30:00,
2013-08-29 15:35:00,91.6,70.9,29.94,North,351,4.0,6.0,51,0.00,,---,0.00,VWS V14.01,2013-08-29 19:35:00,
2013-08-29 15:40:00,92.0,71.3,29.94,North,349,4.0,7.0,51,0.00,,---,0.00,VWS V14.01,2013-08-29 19:40:00,
2013-08-29 15:45:00,93.0,69.8,29.94,NNW,340,3.0,9.0,47,0.00,,---,0.00,VWS V14.01,2013-08-29 19:45:00,
2013-08-29 15:50:00,93.7,72.3,29.94,NNE,29,4.0,9.0,50,0.00,,---,0.00,VWS V14.01,2013-08-29 19:50:00,
2013-08-29 15:55:00,92.9,70.3,29.94,NE,48,2.0,7.0,48,0.00,,---,0.00,VWS V14.01,2013-08-29 19:55:00,
2013-08-29 16:00:00,93.1,71.7,29.93,North,5,6.0,8.0,50,0.00,,---,0.00,VWS V14.01,2013-08-29 20:00:00,
2013-08-29 16:05:00,93.3,69.4,29.93,NW,318,7.0,7.0,46,0.00,,---,0.00,VWS V14.01,2013-08-29 20:05:00,
2013-08-29 16:10:00,92.4,69.9,29.93,WNW,298,4.0,7.0,48,0.00,,---,0.00,VWS V14.01,2013-08-29 20:10:00,
2013-08-29 16:15:00,91.8,69.9,29.93,NE,54,3.0,9.0,49,0.00,,---,0.00,VWS V14.01,2013-08-29 20:15:00,
2013-08-29 16:20:00,92.6,73.0,29.93,SE,137,5.0,9.0,53,0.00,,---,0.00,VWS V14.01,2013-08-29 20:20:00,
2013-08-29 16:25:00,92.4,73.3,29.92,ESE,118,1.0,8.0,54,0.00,,---,0.00,VWS V14.01,2013-08-29 20:25:00,
2013-08-29 16:30:00,91.3,70.7,29.92,SSE,155,8.0,8.0,51,0.00,,---,0.00,VWS V14.01,2013-08-29 20:30:00,
2013-08-29 16:35:00,91.4,73.5,29.92,SE,124,2.0,9.0,56,0.00,,---,0.00,VWS V14.01,2013-08-29 20:35:00,
2013-08-29 16:40:00,91.4,72.4,29.92,SSE,147,2.0,9.0,54,0.00,,---,0.00,VWS V14.01,2013-08-29 20:40:00,
2013-08-29 16:45:00,90.4,71.5,29.92,East,93,0.0,6.0,54,0.00,,---,0.00,VWS V14.01,2013-08-29 20:45:00,
2013-08-29 16:50:00,89.8,69.8,29.92,East,100,0.0,6.0,52,0.00,,---,0.00,VWS V14.01,2013-08-29 20:50:00,
2013-08-29 16:55:00,90.0,71.1,29.92,East,100,1.0,4.0,54,0.00,,---,0.00,VWS V14.01,2013-08-29 20:55:00,
2013-08-29 17:00:00,90.2,71.3,29.92,East,100,1.0,4.0,54,0.00,,---,0.00,VWS V14.01,2013-08-29 21:00:00,
2013-08-29 17:05:00,91.4,71.9,29.92,East,100,2.0,4.0,53,0.00,,---,0.00,VWS V14.01,2013-08-29 21:05:00,
2013-08-29 17:10:00,91.7,71.0,29.92,SSE,153,4.0,7.0,51,0.00,,---,0.00,VWS V14.01,2013-08-29 21:10:00,
2013-08-29 17:15:00,90.4,71.5,29.92,SE,128,4.0,5.0,54,0.00,,---,0.00,VWS V14.01,2013-08-29 21:15:00,
2013-08-29 17:20:00,90.3,71.4,29.92,SE,128,0.0,5.0,54,0.00,,---,0.00,VWS V14.01,2013-08-29 21:20:00,
2013-08-29 17:25:00,90.1,71.8,29.92,SE,128,1.0,1.0,55,0.00,,---,0.00,VWS V14.01,2013-08-29 21:25:00,
2013-08-29 17:30:00,89.7,71.9,29.92,SSE,167,2.0,6.0,56,0.00,,---,0.00,VWS V14.01,2013-08-29 21:30:00,
2013-08-29 17:35:00,89.7,72.4,29.92,SSE,167,4.0,4.0,57,0.00,,---,0.00,VWS V14.01,2013-08-29 21:35:00,
2013-08-29 17:40:00,90.0,74.8,29.92,South,174,1.0,6.0,61,0.00,,---,0.00,VWS V14.01,2013-08-29 21:40:00,
2013-08-29 17:45:00,89.7,73.5,29.92,SSE,168,4.0,7.0,59,0.00,,---,0.00,VWS V14.01,2013-08-29 21:45:00,
2013-08-29 17:50:00,89.3,73.1,29.92,South,176,2.0,7.0,59,0.00,,---,0.00,VWS V14.01,2013-08-29 21:50:00,
2013-08-29 17:55:00,89.0,74.3,29.91,South,176,2.0,4.0,62,0.00,,---,0.00,VWS V14.01,2013-08-29 21:55:00,
2013-08-29 18:00:00,88.7,73.0,29.91,SSW,205,4.0,7.0,60,0.00,,---,0.00,VWS V14.01,2013-08-29 22:00:00,
2013-08-29 18:05:00,88.4,73.2,29.91,South,173,2.0,7.0,61,0.00,,---,0.00,VWS V14.01,2013-08-29 22:05:00,
2013-08-29 18:10:00,88.2,73.6,29.91,South,173,2.0,7.0,62,0.00,,---,0.00,VWS V14.01,2013-08-29 22:10:00,
2013-08-29 18:15:00,88.0,73.4,29.92,South,173,0.0,2.0,62,0.00,,---,0.00,VWS V14.01,2013-08-29 22:15:00,
2013-08-29 18:20:00,87.9,74.2,29.91,South,173,0.0,2.0,64,0.00,,---,0.00,VWS V14.01,2013-08-29 22:20:00,
2013-08-29 18:25:00,87.6,73.9,29.91,South,173,0.0,0.0,64,0.00,,---,0.00,VWS V14.01,2013-08-29 22:25:00,
2013-08-29 18:30:00,87.3,73.6,29.91,South,173,0.0,0.0,64,0.00,,---,0.00,VWS V14.01,2013-08-29 22:30:00,
2013-08-29 18:35:00,87.1,73.9,29.91,South,173,0.0,0.0,65,0.00,,---,0.00,VWS V14.01,2013-08-29 22:35:00,
2013-08-29 18:40:00,86.9,74.6,29.91,South,173,0.0,0.0,67,0.00,,---,0.00,VWS V14.01,2013-08-29 22:40:00,
2013-08-29 18:45:00,86.6,75.2,29.91,South,173,0.0,0.0,69,0.00,,---,0.00,VWS V14.01,2013-08-29 22:45:00,
2013-08-29 18:50:00,86.4,75.0,29.91,South,173,0.0,0.0,69,0.00,,---,0.00,VWS V14.01,2013-08-29 22:50:00,
2013-08-29 18:55:00,86.3,75.4,29.91,South,173,0.0,0.0,70,0.00,,---,0.00,VWS V14.01,2013-08-29 22:55:00,
2013-08-29 19:00:00,86.3,74.9,29.92,South,173,0.0,0.0,69,0.00,,---,0.00,VWS V14.01,2013-08-29 23:00:00,
2013-08-29 19:05:00,86.5,74.2,29.92,South,173,0.0,2.0,67,0.00,,---,0.00,VWS V14.01,2013-08-29 23:05:00,
2013-08-29 19:10:00,86.8,74.5,29.92,South,173,0.0,4.0,67,0.00,,---,0.00,VWS V14.01,2013-08-29 23:10:00,
2013-08-29 19:15:00,87.2,74.5,29.92,South,173,1.0,4.0,66,0.00,,---,0.00,VWS V14.01,2013-08-29 23:15:00,
2013-08-29 19:20:00,87.5,73.8,29.92,South,173,2.0,4.0,64,0.00,,---,0.00,VWS V14.01,2013-08-29 23:20:00,
2013-08-29 19:25:00,87.4,73.7,29.92,SW,234,1.0,5.0,64,0.00,,---,0.00,VWS V14.01,2013-08-29 23:25:00,
2013-08-29 19:30:00,87.1,73.9,29.92,WSW,256,0.0,6.0,65,0.00,,---,0.00,VWS V14.01,2013-08-29 23:30:00,
2013-08-29 19:35:00,87.0,73.4,29.92,WSW,257,2.0,4.0,64,0.00,,---,0.00,VWS V14.01,2013-08-29 23:35:00,
2013-08-29 19:40:00,86.9,73.7,29.92,WSW,257,0.0,4.0,65,0.00,,---,0.00,VWS V14.01,2013-08-29 23:40:00,
2013-08-29 19:45:00,86.6,73.0,29.92,WSW,257,0.0,2.0,64,0.00,,---,0.00,VWS V14.01,2013-08-29 23:45:00,
2013-08-29 19:50:00,86.4,73.2,29.93,WSW,257,0.0,2.0,65,0.00,,---,0.00,VWS V14.01,2013-08-29 23:50:00,
2013-08-29 19:55:00,86.2,74.0,29.93,WSW,257,0.0,0.0,67,0.00,,---,0.00,VWS V14.01,2013-08-29 23:55:00,
2013-08-29 20:00:00,85.9,74.1,29.93,WSW,257,2.0,2.0,68,0.00,,---,0.00,VWS V14.01,2013-08-30 00:00:00,
2013-08-29 20:05:00,85.3,73.1,29.93,NW,311,3.0,7.0,67,0.00,,---,0.00,VWS V14.01,2013-08-30 00:05:00,
2013-08-29 20:10:00,84.9,73.2,29.93,NW,311,2.0,7.0,68,0.00,,---,0.00,VWS V14.01,2013-08-30 00:10:00,
2013-08-29 20:15:00,84.6,73.3,29.93,NW,311,2.0,4.0,69,0.00,,---,0.00,VWS V14.01,2013-08-30 00:15:00,
2013-08-29 20:20:00,84.3,73.5,29.93,NW,311,2.0,5.0,70,0.00,,---,0.00,VWS V14.01,2013-08-30 00:20:00,
2013-08-29 20:25:00,84.0,73.2,29.94,NW,311,0.0,1.0,70,0.00,,---,0.00,VWS V14.01,2013-08-30 00:25:00,
2013-08-29 20:30:00,83.8,73.4,29.94,NW,311,2.0,3.0,71,0.00,,---,0.00,VWS V14.01,2013-08-30 00:30:00,
2013-08-29 20:35:00,83.5,73.5,29.94,SSE,166,6.0,8.0,72,0.00,,---,0.00,VWS V14.01,2013-08-30 00:35:00,
2013-08-29 20:40:00,83.0,73.1,29.94,SE,146,5.0,8.0,72,0.00,,---,0.00,VWS V14.01,2013-08-30 00:40:00,
2013-08-29 20:45:00,82.5,73.0,29.95,SSE,155,5.0,12.0,73,0.00,,---,0.00,VWS V14.01,2013-08-30 00:45:00,
2013-08-29 20:50:00,81.7,72.6,29.95,SSE,153,7.0,12.0,74,0.00,,---,0.00,VWS V14.01,2013-08-30 00:50:00,
2013-08-29 20:55:00,80.9,71.8,29.95,South,180,3.0,9.0,74,0.00,,---,0.00,VWS V14.01,2013-08-30 00:55:00,
2013-08-29 21:00:00,80.5,71.8,29.95,SSE,160,2.0,9.0,75,0.00,,---,0.00,VWS V14.01,2013-08-30 01:00:00,
2013-08-29 21:05:00,80.2,71.9,29.95,SSE,163,2.0,4.0,76,0.00,,---,0.00,VWS V14.01,2013-08-30 01:05:00,
2013-08-29 21:10:00,79.9,72.1,29.95,SSE,163,0.0,4.0,77,0.00,,---,0.00,VWS V14.01,2013-08-30 01:10:00,
2013-08-29 21:15:00,79.6,71.8,29.95,SSE,163,0.0,2.0,77,0.00,,---,0.00,VWS V14.01,2013-08-30 01:15:00,
2013-08-29 21:20:00,79.4,71.9,29.95,ESE,123,4.0,7.0,78,0.00,,---,0.00,VWS V14.01,2013-08-30 01:20:00,
2013-08-29 21:25:00,79.1,71.7,29.95,SE,134,2.0,5.0,78,0.00,,---,0.00,VWS V14.01,2013-08-30 01:25:00,
2013-08-29 21:30:00,78.9,71.5,29.96,SE,134,0.0,5.0,78,0.00,,---,0.00,VWS V14.01,2013-08-30 01:30:00,
2013-08-29 21:34:00,78.7,71.6,29.96,SE,134,2.0,5.0,79,0.00,,---,0.00,VWS V14.01,2013-08-30 01:34:00,
2013-08-29 21:39:00,78.6,71.6,29.96,SE,134,4.0,5.0,79,0.00,,---,0.00,VWS V14.01,2013-08-30 01:39:00,
2013-08-29 21:40:00,78.6,71.6,29.96,SE,134,1.0,5.0,79,0.00,,---,0.00,VWS V14.01,2013-08-30 01:40:00,
2013-08-29 21:44:00,78.5,71.8,29.96,SE,134,2.0,4.0,80,0.00,,---,0.00,VWS V14.01,2013-08-30 01:44:00,
2013-08-29 21:49:00,78.4,71.7,29.96,SE,134,1.0,4.0,80,0.00,,---,0.00,VWS V14.01,2013-08-30 01:49:00,
2013-08-29 21:50:00,78.4,71.7,29.96,SE,134,1.0,4.0,80,0.00,,---,0.00,VWS V14.01,2013-08-30 01:50:00,
2013-08-29 21:54:00,78.3,72.0,29.97,SE,134,1.0,5.0,81,0.00,,---,0.00,VWS V14.01,2013-08-30 01:54:00,
2013-08-29 21:59:00,78.3,72.4,29.96,SSE,148,5.0,6.0,82,0.00,,---,0.00,VWS V14.01,2013-08-30 01:59:00,
2013-08-29 22:00:00,78.2,72.3,29.96,SSE,158,5.0,6.0,82,0.00,,---,0.00,VWS V14.01,2013-08-30 02:00:00,
2013-08-29 22:04:00,78.2,72.3,29.97,SSE,162,2.0,6.0,82,0.00,,---,0.00,VWS V14.01,2013-08-30 02:04:00,
2013-08-29 22:09:00,78.0,72.4,29.97,SSW,200,3.0,7.0,83,0.00,,---,0.00,VWS V14.01,2013-08-30 02:09:00,
2013-08-29 22:10:00,78.0,72.4,29.97,SSW,199,4.0,7.0,83,0.00,,---,0.00,VWS V14.01,2013-08-30 02:10:00,
2013-08-29 22:14:00,77.8,72.6,29.97,South,169,2.0,6.0,84,0.00,,---,0.00,VWS V14.01,2013-08-30 02:14:00,
2013-08-29 22:19:00,77.6,72.4,29.96,South,170,0.0,6.0,84,0.00,,---,0.00,VWS V14.01,2013-08-30 02:19:00,
2013-08-29 22:20:00,77.6,72.4,29.96,South,170,0.0,6.0,84,0.00,,---,0.00,VWS V14.01,2013-08-30 02:20:00,
2013-08-29 22:24:00,77.5,72.3,29.96,South,180,2.0,6.0,84,0.00,,---,0.00,VWS V14.01,2013-08-30 02:24:00,
2013-08-29 22:29:00,77.4,72.2,29.96,South,181,4.0,6.0,84,0.00,,---,0.00,VWS V14.01,2013-08-30 02:29:00,
2013-08-29 22:30:00,77.4,72.2,29.96,South,181,0.0,6.0,84,0.00,,---,0.00,VWS V14.01,2013-08-30 02:30:00,
2013-08-29 22:34:00,77.3,72.1,29.96,South,175,2.0,5.0,84,0.00,,---,0.00,VWS V14.01,2013-08-30 02:34:00,
2013-08-29 22:39:00,77.3,72.1,29.97,South,175,0.0,5.0,84,0.00,,---,0.00,VWS V14.01,2013-08-30 02:39:00,
2013-08-29 22:40:00,77.3,72.1,29.97,South,175,0.0,5.0,84,0.00,,---,0.00,VWS V14.01,2013-08-30 02:40:00,
2013-08-29 22:44:00,77.2,72.3,29.97,South,175,0.0,2.0,85,0.00,,---,0.00,VWS V14.01,2013-08-30 02:44:00,
2013-08-29 22:49:00,77.2,72.3,29.97,South,175,0.0,2.0,85,0.00,,---,0.00,VWS V14.01,2013-08-30 02:49:00,
2013-08-29 22:50:00,77.2,72.3,29.97,South,175,0.0,2.0,85,0.00,,---,0.00,VWS V14.01,2013-08-30 02:50:00,
2013-08-29 22:54:00,77.1,72.2,29.97,South,175,0.0,0.0,85,0.00,,---,0.00,VWS V14.01,2013-08-30 02:54:00,
2013-08-29 22:59:00,77.1,72.6,29.97,South,175,0.0,0.0,86,0.00,,---,0.00,VWS V14.01,2013-08-30 02:59:00,
2013-08-29 23:00:00,77.0,72.5,29.97,South,175,0.0,0.0,86,0.00,,---,0.00,VWS V14.01,2013-08-30 03:00:00,
2013-08-29 23:04:00,76.9,72.4,29.97,South,175,0.0,0.0,86,0.00,,---,0.00,VWS V14.01,2013-08-30 03:04:00,
2013-08-29 23:09:00,76.8,72.3,29.97,South,175,0.0,0.0,86,0.00,,---,0.00,VWS V14.01,2013-08-30 03:09:00,
2013-08-29 23:10:00,76.8,72.3,29.97,South,175,0.0,0.0,86,0.00,,---,0.00,VWS V14.01,2013-08-30 03:10:00,
2013-08-29 23:14:00,76.7,72.5,29.97,South,175,0.0,0.0,87,0.00,,---,0.00,VWS V14.01,2013-08-30 03:14:00,
2013-08-29 23:19:00,76.5,72.7,29.97,South,175,0.0,0.0,88,0.00,,---,0.00,VWS V14.01,2013-08-30 03:19:00,
2013-08-29 23:20:00,76.5,72.7,29.97,South,175,0.0,0.0,88,0.00,,---,0.00,VWS V14.01,2013-08-30 03:20:00,
2013-08-29 23:24:00,76.3,72.5,29.97,South,175,0.0,0.0,88,0.00,,---,0.00,VWS V14.01,2013-08-30 03:24:00,
2013-08-29 23:29:00,76.2,72.4,29.97,South,175,0.0,0.0,88,0.00,,---,0.00,VWS V14.01,2013-08-30 03:29:00,
2013-08-29 23:30:00,76.1,72.3,29.97,South,175,0.0,0.0,88,0.00,,---,0.00,VWS V14.01,2013-08-30 03:30:00,
2013-08-29 23:34:00,76.0,72.5,29.96,South,175,0.0,0.0,89,0.00,,---,0.00,VWS V14.01,2013-08-30 03:34:00,
2013-08-29 23:39:00,75.8,72.3,29.96,South,175,0.0,2.0,89,0.00,,---,0.00,VWS V14.01,2013-08-30 03:39:00,
2013-08-29 23:40:00,75.8,72.3,29.97,South,175,0.0,2.0,89,0.00,,---,0.00,VWS V14.01,2013-08-30 03:40:00,
2013-08-29 23:44:00,75.7,72.2,29.97,South,175,0.0,1.0,89,0.00,,---,0.00,VWS V14.01,2013-08-30 03:44:00,
2013-08-29 23:49:00,75.7,72.6,29.97,South,175,0.0,1.0,90,0.00,,---,0.00,VWS V14.01,2013-08-30 03:49:00,
2013-08-29 23:50:00,75.6,72.5,29.97,South,175,0.0,1.0,90,0.00,,---,0.00,VWS V14.01,2013-08-30 03:50:00,
2013-08-29 23:54:00,75.6,72.5,29.97,South,175,0.0,0.0,90,0.00,,---,0.00,VWS V14.01,2013-08-30 03:54:00,
2013-08-29 23:59:00,75.5,72.4,29.97,South,175,0.0,0.0,90,0.00,,---,0.00,VWS V14.01,2013-08-30 03:59:00,